UUDD/DME METAR and TAF weather

Enter ICAO airport designator
Station Type Date Time Source
UUDD METAR 2022/05/26 04:00 UTC NOAA

UUDD 260400Z VRB01MPS CAVOK 09/04 Q1009 R32L/CLRD60 NOSIG


Station Type Date Time Source
UUDD Decoded METAR 2022/05/26 04:00 UTC NOAA

Moscow / Domodedovo, Russia (UUDD) 55-24N 037-54E
May 26, 2022 - 12:00 AM EDT / 2022.05.26 0400 UTC
Wind: Variable at 2 MPH (2 KT):0
Visibility: greater than 7 mile(s):0
Temperature: 48 F (9 C)
Dew Point: 39 F (4 C)
Relative Humidity: 70%
Pressure (altimeter): 29.80 in. Hg (1009 hPa)
ob: UUDD 260400Z VRB01MPS CAVOK 09/04 Q1009 R32L/CLRD60 NOSIG
cycle: 4

Station Type Date Time Source
UUDD TAF 2022/05/26 03:23 UTC NOAA

TAF UUDD 260154Z 2603/2709 20003MPS 8000 SCT020 TX20/2612Z TN08/2603Z
TEMPO 2612/2617 20008G15MPS -SHRA BKN016CB
BECMG 2617/2618 11006MPS
TEMPO 2617/2702 2000 SHRA BKN003 SCT016CB
BECMG 2621/2623 29006G13MPS
TEMPO 2702/2709 -SHRA BKN006 SCT016CB

Example: see airport list